Time;durP1;ratioP1;P1;durP2;ratioP2;P2;SDS_P1;SDS_P2;PMS_P1;PMS_P2;Temp;Humidity;BMP_temperature;BMP_pressure;BME280_temperature;BME280_humidity;BME280_pressure;Samples;Min_cycle;Max_cycle;Signal;HPM_P1;HPM_P2
2022/01/06 00:00:12;;;;;;;11.47;1.87;;;;;;;;;;5072450;28;20450;-87
2022/01/06 00:02:38;;;;;;;11.53;1.97;;;;;;;;;;5072362;28;20060;-87
2022/01/06 00:05:04;;;;;;;14.83;1.60;;;;;;;;;;5073798;28;20024;-87
2022/01/06 00:07:29;;;;;;;12.60;2.27;;;;;;;;;;5092568;28;20020;-87
2022/01/06 00:09:55;;;;;;;8.33;1.43;;;;;;;;;;5092509;28;20024;-87
2022/01/06 00:12:25;;;;;;;13.50;2.27;;;;;;;;;;5092453;28;20024;-87
2022/01/06 00:17:42;;;;;;;9.37;1.80;;;;;;;;;;5053728;28;20025;-87
2022/01/06 00:25:52;;;;;;;15.37;2.20;;;;;;;;;;5031452;28;20021;-87
2022/01/06 00:28:18;;;;;;;7.67;1.87;;;;;;;;;;5048526;28;20039;-87
2022/01/06 00:30:43;;;;;;;9.27;1.70;;;;;;;;;;5068548;28;20031;-87
2022/01/06 00:33:08;;;;;;;7.10;1.80;;;;;;;;;;5073418;28;20062;-87
2022/01/06 00:35:34;;;;;;;15.20;2.90;;;;;;;;;;5077121;28;20377;-87
2022/01/06 00:37:59;;;;;;;13.00;2.50;;;;;;;;;;5075924;28;20023;-87
2022/01/06 00:40:24;;;;;;;15.40;2.27;;;;;;;;;;5076051;28;20521;-87
2022/01/06 00:42:50;;;;;;;12.20;2.30;;;;;;;;;;5075786;28;20040;-87
2022/01/06 00:45:15;;;;;;;20.47;2.63;;;;;;;;;;5075978;28;20020;-87
2022/01/06 00:47:40;;;;;;;14.57;2.03;;;;;;;;;;5075715;28;20035;-87
2022/01/06 00:50:06;;;;;;;14.53;1.83;;;;;;;;;;5075637;28;20107;-87
2022/01/06 00:52:31;;;;;;;13.60;1.97;;;;;;;;;;5075570;28;20025;-87
2022/01/06 00:54:56;;;;;;;9.57;2.13;;;;;;;;;;5075217;28;20024;-87
2022/01/06 00:57:22;;;;;;;9.90;2.00;;;;;;;;;;5076869;28;20017;-87
2022/01/06 00:59:47;;;;;;;11.50;2.40;;;;;;;;;;5075539;28;20033;-87
2022/01/06 01:02:12;;;;;;;9.70;1.53;;;;;;;;;;5075459;28;20103;-87
2022/01/06 01:04:37;;;;;;;14.43;1.80;;;;;;;;;;5090440;28;20020;-87
2022/01/06 01:07:03;;;;;;;15.60;2.13;;;;;;;;;;5096886;28;20082;-87
2022/01/06 01:09:29;;;;;;;14.50;1.77;;;;;;;;;;5097116;28;20451;-87
2022/01/06 01:11:54;;;;;;;18.23;2.07;;;;;;;;;;5087652;28;20025;-87
2022/01/06 01:14:28;;;;;;;16.13;1.83;;;;;;;;;;5075262;28;20074;-87
2022/01/06 01:16:56;;;;;;;13.90;2.13;;;;;;;;;;5075324;28;20024;-87
2022/01/06 01:19:22;;;;;;;14.10;1.80;;;;;;;;;;5075203;28;20031;-87
2022/01/06 01:21:48;;;;;;;15.43;2.00;;;;;;;;;;5075219;28;20111;-87
2022/01/06 01:24:13;;;;;;;20.00;1.80;;;;;;;;;;5074823;28;20033;-87
2022/01/06 01:26:38;;;;;;;19.87;2.00;;;;;;;;;;5074895;28;20040;-87
2022/01/06 01:29:04;;;;;;;13.83;1.93;;;;;;;;;;5075011;28;20107;-87
2022/01/06 01:31:35;;;;;;;15.87;1.90;;;;;;;;;;5075057;28;20031;-87
2022/01/06 01:34:08;;;;;;;16.55;1.85;;;;;;;;;;5075039;28;20031;-87
2022/01/06 01:36:33;;;;;;;15.07;1.92;;;;;;;;;;5074824;28;20028;-87
2022/01/06 01:38:58;;;;;;;16.67;2.40;;;;;;;;;;5074857;28;20020;-87
2022/01/06 01:41:24;;;;;;;11.97;1.93;;;;;;;;;;5074751;28;20039;-87
2022/01/06 01:43:50;;;;;;;17.33;2.17;;;;;;;;;;5075366;28;20066;-87
2022/01/06 01:46:17;;;;;;;15.43;1.50;;;;;;;;;;5073706;28;20020;-87
2022/01/06 01:48:49;;;;;;;13.73;2.03;;;;;;;;;;5074518;28;20127;-87
2022/01/06 01:51:14;;;;;;;16.23;1.90;;;;;;;;;;5074280;28;20420;-87
2022/01/06 01:53:39;;;;;;;19.93;1.70;;;;;;;;;;5074627;28;20040;-87
2022/01/06 01:56:09;;;;;;;15.63;1.73;;;;;;;;;;5074555;28;20539;-87
2022/01/06 01:58:34;;;;;;;12.10;1.47;;;;;;;;;;5075770;28;20067;-87
2022/01/06 02:01:00;;;;;;;16.37;1.60;;;;;;;;;;5075295;28;20048;-87
2022/01/06 02:03:25;;;;;;;18.97;1.60;;;;;;;;;;5074394;28;20533;-87
2022/01/06 02:05:53;;;;;;;20.70;1.90;;;;;;;;;;5074379;28;20024;-87
2022/01/06 02:08:18;;;;;;;12.67;2.10;;;;;;;;;;5075452;28;20055;-87
2022/01/06 02:10:44;;;;;;;16.83;1.70;;;;;;;;;;5074223;28;20048;-87
2022/01/06 02:13:09;;;;;;;11.03;2.53;;;;;;;;;;5075440;28;20058;-87
2022/01/06 02:15:34;;;;;;;13.53;2.17;;;;;;;;;;5074010;28;20550;-87
2022/01/06 02:18:00;;;;;;;8.67;1.80;;;;;;;;;;5074125;28;20043;-87
2022/01/06 02:20:25;;;;;;;16.97;2.03;;;;;;;;;;5074211;28;20013;-87
2022/01/06 02:22:52;;;;;;;12.27;1.90;;;;;;;;;;5073610;28;20391;-87
2022/01/06 02:25:18;;;;;;;11.30;1.73;;;;;;;;;;5073898;28;20017;-87
2022/01/06 02:27:46;;;;;;;8.77;1.50;;;;;;;;;;5075156;28;20021;-87
2022/01/06 02:30:11;;;;;;;18.53;1.83;;;;;;;;;;5073628;28;20031;-87
2022/01/06 02:32:37;;;;;;;10.10;1.90;;;;;;;;;;5073658;28;20100;-87
2022/01/06 02:35:06;;;;;;;11.00;1.63;;;;;;;;;;5073686;28;20016;-87
2022/01/06 02:37:32;;;;;;;21.83;2.90;;;;;;;;;;5074885;28;20020;-87
2022/01/06 02:39:57;;;;;;;14.27;2.03;;;;;;;;;;5073696;28;20468;-87
2022/01/06 02:42:23;;;;;;;14.40;2.03;;;;;;;;;;5073641;28;20028;-87
2022/01/06 02:44:48;;;;;;;13.17;1.77;;;;;;;;;;5073619;28;20081;-87
2022/01/06 02:47:14;;;;;;;15.63;2.03;;;;;;;;;;5058468;28;20111;-87
2022/01/06 02:49:39;;;;;;;9.10;1.80;;;;;;;;;;5053572;28;20473;-88
2022/01/06 02:52:04;;;;;;;11.80;1.80;;;;;;;;;;5053506;28;20021;-87
2022/01/06 02:54:30;;;;;;;10.43;1.50;;;;;;;;;;5053518;28;20021;-87
2022/01/06 02:56:55;;;;;;;5.07;1.43;;;;;;;;;;5053215;28;20120;-87
2022/01/06 02:59:20;;;;;;;12.37;2.20;;;;;;;;;;5053342;28;20025;-87
2022/01/06 03:01:46;;;;;;;15.70;1.70;;;;;;;;;;5053252;28;20052;-87
2022/01/06 03:04:11;;;;;;;12.60;2.07;;;;;;;;;;5068653;28;20024;-87
2022/01/06 03:06:37;;;;;;;8.67;1.47;;;;;;;;;;5073318;28;20066;-87
2022/01/06 03:09:03;;;;;;;7.80;1.63;;;;;;;;;;5073076;28;20021;-88
2022/01/06 03:11:28;;;;;;;13.33;1.87;;;;;;;;;;5073226;28;20016;-87
2022/01/06 03:13:54;;;;;;;10.77;1.60;;;;;;;;;;5074350;28;20009;-87
2022/01/06 03:16:19;;;;;;;11.27;2.13;;;;;;;;;;5072855;28;20024;-86
2022/01/06 03:18:44;;;;;;;11.40;1.67;;;;;;;;;;5066696;28;20392;-87
2022/01/06 03:21:09;;;;;;;13.80;1.90;;;;;;;;;;5073132;28;20035;-87
2022/01/06 03:23:35;;;;;;;11.10;1.80;;;;;;;;;;5072894;28;20490;-88
2022/01/06 03:26:00;;;;;;;12.80;1.87;;;;;;;;;;5073003;28;20039;-88
2022/01/06 03:28:25;;;;;;;11.93;2.00;;;;;;;;;;5074015;28;20042;-88
2022/01/06 03:30:50;;;;;;;12.03;2.07;;;;;;;;;;5072853;28;20078;-88
2022/01/06 03:33:15;;;;;;;13.63;1.93;;;;;;;;;;5072875;28;20017;-87
2022/01/06 03:35:41;;;;;;;16.00;2.33;;;;;;;;;;5072868;28;20044;-87
2022/01/06 03:38:06;;;;;;;14.37;1.90;;;;;;;;;;5072848;28;20482;-88
2022/01/06 03:40:31;;;;;;;17.40;2.23;;;;;;;;;;5072529;28;20024;-87
2022/01/06 03:42:56;;;;;;;9.77;1.97;;;;;;;;;;5073046;28;20107;-88
2022/01/06 03:45:22;;;;;;;11.40;2.37;;;;;;;;;;5072639;28;20055;-88
2022/01/06 03:47:47;;;;;;;11.60;2.60;;;;;;;;;;5073893;28;20027;-87
2022/01/06 03:50:13;;;;;;;12.30;1.97;;;;;;;;;;5073916;28;20016;-87
2022/01/06 03:52:39;;;;;;;17.13;2.67;;;;;;;;;;5072541;28;20016;-87
2022/01/06 03:55:06;;;;;;;11.83;1.80;;;;;;;;;;5072701;28;20146;-88
2022/01/06 03:57:31;;;;;;;19.30;2.27;;;;;;;;;;5072621;28;20570;-87
2022/01/06 03:59:56;;;;;;;12.17;2.50;;;;;;;;;;5072618;28;20055;-88
2022/01/06 04:02:22;;;;;;;15.83;1.93;;;;;;;;;;5072234;28;20660;-87
2022/01/06 04:04:47;;;;;;;14.37;1.87;;;;;;;;;;5072456;28;20017;-87
2022/01/06 04:07:12;;;;;;;13.10;2.67;;;;;;;;;;5072733;28;20028;-88
2022/01/06 04:09:37;;;;;;;19.97;2.60;;;;;;;;;;5075155;28;20024;-88
2022/01/06 04:12:03;;;;;;;20.37;2.07;;;;;;;;;;5076560;28;20423;-87
2022/01/06 04:14:28;;;;;;;17.37;2.20;;;;;;;;;;5076543;28;20017;-87
2022/01/06 04:16:59;;;;;;;23.47;2.50;;;;;;;;;;5076460;28;20108;-87
2022/01/06 04:19:25;;;;;;;10.10;2.17;;;;;;;;;;5076383;28;20017;-87
2022/01/06 04:21:50;;;;;;;10.60;2.23;;;;;;;;;;5076353;28;20071;-87
2022/01/06 04:24:15;;;;;;;15.97;2.03;;;;;;;;;;5077565;28;20016;-87
2022/01/06 04:26:40;;;;;;;17.30;2.30;;;;;;;;;;5076432;28;20082;-87
2022/01/06 04:29:06;;;;;;;16.70;2.07;;;;;;;;;;5076212;28;20033;-87
2022/01/06 04:31:31;;;;;;;23.27;2.80;;;;;;;;;;5076352;28;20112;-87
2022/01/06 04:33:56;;;;;;;21.97;2.60;;;;;;;;;;5076306;28;20361;-87
2022/01/06 04:36:22;;;;;;;24.20;2.73;;;;;;;;;;5076103;28;20119;-88
2022/01/06 04:38:47;;;;;;;12.30;2.07;;;;;;;;;;5077142;28;20028;-87
2022/01/06 04:41:12;;;;;;;20.50;2.40;;;;;;;;;;5075995;28;20024;-87
2022/01/06 04:43:37;;;;;;;17.37;2.10;;;;;;;;;;5075917;28;20115;-87
2022/01/06 04:46:02;;;;;;;14.13;1.90;;;;;;;;;;5075895;28;20023;-87
2022/01/06 04:48:29;;;;;;;12.37;1.80;;;;;;;;;;5077226;28;20038;-87
2022/01/06 04:50:54;;;;;;;14.20;1.90;;;;;;;;;;5075819;28;20420;-88
2022/01/06 04:53:19;;;;;;;12.27;1.57;;;;;;;;;;5075567;28;20019;-87
2022/01/06 04:55:44;;;;;;;15.53;1.90;;;;;;;;;;5080367;28;20356;-87
2022/01/06 04:58:09;;;;;;;16.90;2.20;;;;;;;;;;5096049;28;20483;-87
2022/01/06 05:00:35;;;;;;;18.50;2.23;;;;;;;;;;5095993;28;20074;-88
2022/01/06 05:03:00;;;;;;;15.17;2.37;;;;;;;;;;5095970;28;20031;-87
2022/01/06 05:05:25;;;;;;;14.20;1.80;;;;;;;;;;5089296;28;20111;-87
2022/01/06 05:07:50;;;;;;;14.73;1.93;;;;;;;;;;5075649;28;20069;-87
2022/01/06 05:10:15;;;;;;;15.03;2.07;;;;;;;;;;5075290;28;20027;-87
2022/01/06 05:12:41;;;;;;;13.10;2.03;;;;;;;;;;5076615;28;20020;-87
2022/01/06 05:15:07;;;;;;;18.13;2.13;;;;;;;;;;5075621;28;20023;-87
2022/01/06 05:17:32;;;;;;;15.87;1.37;;;;;;;;;;5075297;28;20035;-87
2022/01/06 05:19:57;;;;;;;15.17;1.57;;;;;;;;;;5075253;28;20017;-87
2022/01/06 05:22:23;;;;;;;6.40;1.37;;;;;;;;;;5075414;28;20067;-87
2022/01/06 05:24:48;;;;;;;11.37;1.67;;;;;;;;;;5075053;28;20480;-87
2022/01/06 05:27:13;;;;;;;12.60;1.80;;;;;;;;;;5075361;28;20029;-87
2022/01/06 05:29:38;;;;;;;16.43;1.87;;;;;;;;;;5074914;28;20030;-87
2022/01/06 05:32:03;;;;;;;14.33;2.57;;;;;;;;;;5076655;28;20085;-87
2022/01/06 05:34:29;;;;;;;12.57;1.80;;;;;;;;;;5075072;28;20092;-87
2022/01/06 05:36:54;;;;;;;13.63;2.10;;;;;;;;;;5074983;28;20016;-87
2022/01/06 05:39:19;;;;;;;11.27;1.50;;;;;;;;;;5074912;28;20286;-87
2022/01/06 05:41:45;;;;;;;14.47;1.60;;;;;;;;;;5074931;28;20031;-87
2022/01/06 05:44:10;;;;;;;16.23;2.10;;;;;;;;;;5074437;28;20028;-87
2022/01/06 05:46:35;;;;;;;21.87;2.10;;;;;;;;;;5074753;28;20020;-87
2022/01/06 05:49:01;;;;;;;15.10;1.90;;;;;;;;;;5074659;28;20016;-87
2022/01/06 05:51:26;;;;;;;20.23;2.10;;;;;;;;;;5074644;28;20016;-87
2022/01/06 05:53:53;;;;;;;8.47;1.73;;;;;;;;;;5074972;28;20111;-86
2022/01/06 05:56:18;;;;;;;15.33;1.73;;;;;;;;;;5074741;28;20021;-87
2022/01/06 05:58:43;;;;;;;14.83;1.70;;;;;;;;;;5074434;28;20028;-87
2022/01/06 06:01:08;;;;;;;12.93;1.97;;;;;;;;;;5074317;28;20460;-86
2022/01/06 06:03:34;;;;;;;13.20;1.67;;;;;;;;;;5074484;28;20025;-87
2022/01/06 06:05:59;;;;;;;20.40;2.40;;;;;;;;;;5065054;28;20036;-86
2022/01/06 06:08:24;;;;;;;12.40;2.00;;;;;;;;;;5060652;28;20032;-86
2022/01/06 06:10:50;;;;;;;16.87;2.33;;;;;;;;;;5074136;28;20384;-87
2022/01/06 06:13:15;;;;;;;12.47;2.33;;;;;;;;;;5074147;28;20017;-86
2022/01/06 06:15:40;;;;;;;21.50;2.87;;;;;;;;;;5076880;28;20017;-87
2022/01/06 06:18:06;;;;;;;19.40;2.47;;;;;;;;;;5094360;28;20468;-87
2022/01/06 06:20:32;;;;;;;11.93;1.77;;;;;;;;;;5084866;28;20047;-87
2022/01/06 06:22:58;;;;;;;11.37;2.13;;;;;;;;;;5073921;28;20119;-87
2022/01/06 06:25:23;;;;;;;16.03;2.77;;;;;;;;;;5074012;28;20372;-86
2022/01/06 06:27:48;;;;;;;14.33;2.20;;;;;;;;;;5075359;28;20104;-87
2022/01/06 06:30:14;;;;;;;13.30;2.77;;;;;;;;;;5073215;28;20423;-87
2022/01/06 06:32:39;;;;;;;12.10;2.13;;;;;;;;;;5073328;28;20044;-87
2022/01/06 06:35:05;;;;;;;13.43;2.50;;;;;;;;;;5073758;28;20016;-87
2022/01/06 06:37:30;;;;;;;10.63;2.60;;;;;;;;;;5073727;28;20375;-86
2022/01/06 06:39:56;;;;;;;13.83;2.90;;;;;;;;;;5073587;28;20024;-87
2022/01/06 06:42:21;;;;;;;15.00;3.00;;;;;;;;;;5073511;28;20017;-87
2022/01/06 06:44:46;;;;;;;13.83;2.53;;;;;;;;;;5073611;28;20032;-87
2022/01/06 06:47:12;;;;;;;21.97;3.67;;;;;;;;;;5073707;28;20025;-87
2022/01/06 06:49:37;;;;;;;13.40;3.00;;;;;;;;;;5073416;28;20036;-87
2022/01/06 06:52:03;;;;;;;11.33;2.43;;;;;;;;;;5073665;28;20093;-87
2022/01/06 06:54:29;;;;;;;10.00;2.90;;;;;;;;;;5073331;28;20027;-87
2022/01/06 06:56:54;;;;;;;12.73;3.10;;;;;;;;;;5074566;28;20020;-87
2022/01/06 06:59:19;;;;;;;11.90;3.07;;;;;;;;;;5073181;28;20016;-86
2022/01/06 07:01:44;;;;;;;13.13;3.17;;;;;;;;;;5073014;28;20119;-87
2022/01/06 07:04:09;;;;;;;10.67;2.83;;;;;;;;;;5073082;28;20025;-87
2022/01/06 07:06:35;;;;;;;18.40;3.30;;;;;;;;;;5073084;28;20073;-87
2022/01/06 07:09:00;;;;;;;17.60;3.67;;;;;;;;;;5074272;28;20444;-87
2022/01/06 07:11:25;;;;;;;19.00;4.20;;;;;;;;;;5072912;28;20017;-87
2022/01/06 07:13:50;;;;;;;14.63;3.80;;;;;;;;;;5073066;28;20491;-86
2022/01/06 07:16:16;;;;;;;15.17;3.40;;;;;;;;;;5072871;28;20016;-86
2022/01/06 07:18:41;;;;;;;14.93;3.37;;;;;;;;;;5072430;28;20024;-86
2022/01/06 07:21:06;;;;;;;23.63;4.40;;;;;;;;;;5073164;28;20069;-86
2022/01/06 07:23:31;;;;;;;19.43;4.60;;;;;;;;;;5075768;28;20019;-88
2022/01/06 07:25:57;;;;;;;22.60;5.03;;;;;;;;;;5073397;28;20021;-87
2022/01/06 07:28:22;;;;;;;19.27;3.80;;;;;;;;;;5071488;28;20031;-87
2022/01/06 07:30:47;;;;;;;28.07;5.30;;;;;;;;;;5061940;28;20024;-87
2022/01/06 07:33:12;;;;;;;24.70;4.80;;;;;;;;;;5073470;28;20017;-87
2022/01/06 07:35:37;;;;;;;22.27;4.90;;;;;;;;;;5073727;28;20026;-87
2022/01/06 07:38:03;;;;;;;20.27;4.23;;;;;;;;;;5073866;28;20107;-87
2022/01/06 07:40:28;;;;;;;21.60;5.23;;;;;;;;;;5073041;28;20060;-87
2022/01/06 07:42:53;;;;;;;21.77;6.70;;;;;;;;;;5073109;28;20021;-87
2022/01/06 07:45:19;;;;;;;16.30;4.33;;;;;;;;;;5063115;28;20032;-87
2022/01/06 07:47:58;;;;;;;18.30;4.90;;;;;;;;;;5056838;28;20112;-88
2022/01/06 07:50:24;;;;;;;18.97;5.33;;;;;;;;;;5054886;28;20028;-87
2022/01/06 07:52:49;;;;;;;18.73;4.60;;;;;;;;;;5053385;28;20020;-86
2022/01/06 07:55:14;;;;;;;22.63;5.10;;;;;;;;;;5093066;28;20020;-88
2022/01/06 07:57:40;;;;;;;21.13;5.63;;;;;;;;;;5093689;28;20026;-87
2022/01/06 08:00:05;;;;;;;17.77;4.93;;;;;;;;;;5077638;28;20031;-87
2022/01/06 08:02:31;;;;;;;30.60;7.30;;;;;;;;;;5072789;28;20484;-87
2022/01/06 08:04:56;;;;;;;21.13;6.77;;;;;;;;;;5073115;28;20021;-89
2022/01/06 08:07:21;;;;;;;23.33;6.40;;;;;;;;;;5072889;28;20032;-88
2022/01/06 08:09:46;;;;;;;20.83;7.13;;;;;;;;;;5073769;28;20021;-88
2022/01/06 08:12:12;;;;;;;24.13;6.90;;;;;;;;;;5074654;28;20012;-88
2022/01/06 08:14:37;;;;;;;25.67;6.17;;;;;;;;;;5075112;28;20016;-88
2022/01/06 08:17:02;;;;;;;19.63;5.50;;;;;;;;;;5075136;28;20349;-90
2022/01/06 08:19:28;;;;;;;17.80;5.57;;;;;;;;;;5072498;28;20384;-90
2022/01/06 08:21:53;;;;;;;22.77;6.17;;;;;;;;;;5073055;28;20017;-90
2022/01/06 08:24:18;;;;;;;18.50;5.73;;;;;;;;;;5072864;28;20025;-92
2022/01/06 08:26:43;;;;;;;20.77;5.70;;;;;;;;;;5073783;28;20028;-92
2022/01/06 08:29:08;;;;;;;22.43;5.63;;;;;;;;;;5075122;28;20017;-90
2022/01/06 08:31:34;;;;;;;18.70;5.60;;;;;;;;;;5075697;28;20100;-89
2022/01/06 08:33:59;;;;;;;22.17;6.40;;;;;;;;;;5073900;28;20096;-88
2022/01/06 08:36:24;;;;;;;24.80;6.50;;;;;;;;;;5074025;28;20040;-86
2022/01/06 08:38:49;;;;;;;24.80;5.57;;;;;;;;;;5072292;28;20543;-88
2022/01/06 08:41:15;;;;;;;21.87;6.43;;;;;;;;;;5064275;28;20119;-91
2022/01/06 08:43:40;;;;;;;12.87;5.40;;;;;;;;;;5066018;28;20028;-88
2022/01/06 08:46:05;;;;;;;27.30;6.53;;;;;;;;;;5072259;28;20525;-87
2022/01/06 08:48:31;;;;;;;19.67;6.27;;;;;;;;;;5069422;28;20028;-88
2022/01/06 08:50:56;;;;;;;29.63;5.70;;;;;;;;;;5056369;28;20058;-88
2022/01/06 08:53:22;;;;;;;22.37;6.23;;;;;;;;;;5072480;28;20078;-88
2022/01/06 08:55:47;;;;;;;21.03;5.87;;;;;;;;;;5075120;28;20387;-88
2022/01/06 08:58:13;;;;;;;24.07;6.47;;;;;;;;;;5076791;28;20025;-87
2022/01/06 09:00:39;;;;;;;27.07;5.83;;;;;;;;;;5076778;28;20035;-87
2022/01/06 09:03:05;;;;;;;25.47;6.07;;;;;;;;;;5079853;28;20028;-88
2022/01/06 09:05:30;;;;;;;23.17;5.93;;;;;;;;;;5076296;28;20040;-88
2022/01/06 09:07:57;;;;;;;21.53;6.43;;;;;;;;;;5077665;28;20025;-88
2022/01/06 09:10:23;;;;;;;15.90;5.57;;;;;;;;;;5070812;28;20419;-90
2022/01/06 09:12:48;;;;;;;23.83;5.53;;;;;;;;;;5072609;28;20031;-88
2022/01/06 09:15:13;;;;;;;25.50;6.00;;;;;;;;;;5077601;28;20111;-89
2022/01/06 09:17:39;;;;;;;20.07;5.43;;;;;;;;;;5078553;28;20021;-89
2022/01/06 09:20:05;;;;;;;21.97;5.83;;;;;;;;;;5078088;28;20021;-89
2022/01/06 09:22:30;;;;;;;22.87;6.20;;;;;;;;;;5077601;28;20032;-90
2022/01/06 09:24:56;;;;;;;20.73;5.30;;;;;;;;;;5073047;28;20029;-90
2022/01/06 09:27:23;;;;;;;20.60;5.43;;;;;;;;;;5087526;28;20087;-89
2022/01/06 09:29:48;;;;;;;20.13;5.27;;;;;;;;;;5082455;28;20411;-88
2022/01/06 09:32:14;;;;;;;29.60;5.97;;;;;;;;;;5076569;28;20024;-87
2022/01/06 09:34:39;;;;;;;25.30;6.33;;;;;;;;;;5075458;28;20025;-89
2022/01/06 09:37:04;;;;;;;24.70;5.10;;;;;;;;;;5076674;28;20119;-90
2022/01/06 09:39:30;;;;;;;20.30;5.37;;;;;;;;;;5077238;28;20065;-90
2022/01/06 09:41:55;;;;;;;19.33;4.83;;;;;;;;;;5075908;28;20495;-90
2022/01/06 09:44:21;;;;;;;24.80;5.20;;;;;;;;;;5076203;28;20021;-90
2022/01/06 09:46:46;;;;;;;29.33;5.50;;;;;;;;;;5075932;28;20028;-90
2022/01/06 09:49:12;;;;;;;21.93;5.40;;;;;;;;;;5075681;28;20025;-91
2022/01/06 09:51:37;;;;;;;23.80;5.40;;;;;;;;;;5075353;28;20021;-91
2022/01/06 09:54:02;;;;;;;20.87;4.37;;;;;;;;;;5078210;28;20127;-90
2022/01/06 09:56:29;;;;;;;20.80;4.93;;;;;;;;;;5078497;28;20021;-91
2022/01/06 09:58:54;;;;;;;26.93;5.33;;;;;;;;;;5084075;28;20035;-90
2022/01/06 10:01:20;;;;;;;19.40;4.57;;;;;;;;;;5071362;28;20452;-90
2022/01/06 10:03:46;;;;;;;27.77;5.80;;;;;;;;;;5079069;28;20028;-91
2022/01/06 10:06:15;;;;;;;20.23;5.10;;;;;;;;;;5074047;28;20058;-91
2022/01/06 10:08:40;;;;;;;22.27;4.77;;;;;;;;;;5074729;28;20023;-91
2022/01/06 10:11:09;;;;;;;17.53;3.97;;;;;;;;;;5074427;28;20028;-91
2022/01/06 10:13:34;;;;;;;19.93;4.20;;;;;;;;;;5074587;28;20020;-92
2022/01/06 10:16:09;;;;;;;27.07;4.43;;;;;;;;;;5074981;28;20054;-91
2022/01/06 10:18:35;;;;;;;19.27;4.13;;;;;;;;;;5074733;28;20017;-91
2022/01/06 10:21:00;;;;;;;19.57;3.50;;;;;;;;;;5074744;28;20464;-91
2022/01/06 10:23:26;;;;;;;22.57;4.03;;;;;;;;;;5074559;28;20020;-91
2022/01/06 10:25:51;;;;;;;18.23;3.40;;;;;;;;;;5075498;28;20055;-91
2022/01/06 10:28:18;;;;;;;22.70;4.43;;;;;;;;;;5074673;28;20021;-91
2022/01/06 10:30:48;;;;;;;18.40;3.63;;;;;;;;;;5074188;28;20501;-91
2022/01/06 10:33:17;;;;;;;18.33;3.73;;;;;;;;;;5074064;28;20020;-90
2022/01/06 10:35:42;;;;;;;18.87;3.53;;;;;;;;;;5074440;28;20063;-91
2022/01/06 10:38:07;;;;;;;21.10;3.33;;;;;;;;;;5074284;28;20016;-91
2022/01/06 10:40:33;;;;;;;20.20;3.77;;;;;;;;;;5074236;28;20028;-91
2022/01/06 10:42:58;;;;;;;23.10;3.43;;;;;;;;;;5074120;28;20020;-91
2022/01/06 10:45:26;;;;;;;17.10;4.60;;;;;;;;;;5074620;28;20024;-91
2022/01/06 10:47:55;;;;;;;13.00;3.30;;;;;;;;;;5074236;28;20025;-91
2022/01/06 10:50:23;;;;;;;22.80;3.67;;;;;;;;;;5073894;28;20036;-90
2022/01/06 10:52:48;;;;;;;17.73;3.70;;;;;;;;;;5074061;28;20028;-90
2022/01/06 10:55:18;;;;;;;20.93;4.30;;;;;;;;;;5075162;28;20021;-91
2022/01/06 10:57:49;;;;;;;13.83;3.97;;;;;;;;;;5073827;28;20545;-91
2022/01/06 11:00:15;;;;;;;19.23;3.90;;;;;;;;;;5073947;28;20027;-91
2022/01/06 11:02:41;;;;;;;20.23;4.97;;;;;;;;;;5073833;28;20024;-91
2022/01/06 11:05:06;;;;;;;18.10;3.70;;;;;;;;;;5072978;28;20525;-91
2022/01/06 11:07:31;;;;;;;19.37;3.77;;;;;;;;;;5073702;28;20559;-91
2022/01/06 11:09:57;;;;;;;20.10;4.50;;;;;;;;;;5073490;28;20031;-91
2022/01/06 11:12:30;;;;;;;20.97;4.13;;;;;;;;;;5074771;28;20055;-91
2022/01/06 11:14:56;;;;;;;25.23;4.40;;;;;;;;;;5073691;28;20072;-91
2022/01/06 11:17:23;;;;;;;25.07;4.80;;;;;;;;;;5073308;28;20021;-91
2022/01/06 11:19:49;;;;;;;23.47;4.87;;;;;;;;;;5073492;28;20021;-91
2022/01/06 11:22:15;;;;;;;17.37;3.87;;;;;;;;;;5073669;28;20027;-91
2022/01/06 11:24:50;;;;;;;18.37;4.43;;;;;;;;;;5073558;28;20032;-91
2022/01/06 11:27:16;;;;;;;17.47;5.23;;;;;;;;;;5073696;28;20035;-91
2022/01/06 11:29:42;;;;;;;20.13;4.47;;;;;;;;;;5073243;28;20384;-90
2022/01/06 11:32:21;;;;;;;17.83;4.23;;;;;;;;;;5085739;28;20107;-91
2022/01/06 11:34:49;;;;;;;19.40;4.13;;;;;;;;;;5093558;28;20020;-91
2022/01/06 11:37:17;;;;;;;23.17;3.80;;;;;;;;;;5093658;28;20012;-92
2022/01/06 11:39:43;;;;;;;19.60;4.10;;;;;;;;;;5073864;28;20029;-91
2022/01/06 11:42:13;;;;;;;20.70;4.67;;;;;;;;;;5053200;28;20020;-91
2022/01/06 11:44:47;;;;;;;18.50;3.70;;;;;;;;;;5053145;28;20056;-91
2022/01/06 11:47:12;;;;;;;20.07;4.10;;;;;;;;;;5053187;28;20056;-90
2022/01/06 11:49:40;;;;;;;26.43;4.30;;;;;;;;;;5053078;28;20064;-90
2022/01/06 11:52:06;;;;;;;13.57;3.57;;;;;;;;;;5052983;28;20091;-91
2022/01/06 11:54:31;;;;;;;22.33;4.90;;;;;;;;;;5053228;28;20067;-91
2022/01/06 11:56:57;;;;;;;13.37;3.70;;;;;;;;;;5063585;28;20025;-91
2022/01/06 11:59:30;;;;;;;21.17;4.33;;;;;;;;;;5073031;28;20024;-91
2022/01/06 12:01:55;;;;;;;13.50;2.93;;;;;;;;;;5072918;28;20027;-91
2022/01/06 12:04:22;;;;;;;26.47;4.03;;;;;;;;;;5072841;28;20028;-90
2022/01/06 12:06:47;;;;;;;19.27;3.23;;;;;;;;;;5073171;28;20020;-91
2022/01/06 12:09:16;;;;;;;23.37;3.23;;;;;;;;;;5072705;28;20020;-91
2022/01/06 12:11:41;;;;;;;18.10;3.00;;;;;;;;;;5074188;28;20020;-91
2022/01/06 12:14:07;;;;;;;14.30;2.93;;;;;;;;;;5072963;28;20170;-91
2022/01/06 12:16:34;;;;;;;22.47;3.17;;;;;;;;;;5074023;28;20074;-91
2022/01/06 12:19:00;;;;;;;21.63;3.80;;;;;;;;;;5072530;28;20032;-90
2022/01/06 12:21:26;;;;;;;23.27;3.27;;;;;;;;;;5072599;28;20032;-90
2022/01/06 12:24:01;;;;;;;18.70;2.97;;;;;;;;;;5072681;28;20563;-90
2022/01/06 12:26:26;;;;;;;18.33;2.73;;;;;;;;;;5079161;28;20051;-89
2022/01/06 12:28:52;;;;;;;24.20;3.30;;;;;;;;;;5052482;28;20025;-90
2022/01/06 12:31:30;;;;;;;16.73;2.93;;;;;;;;;;5056302;28;20021;-90
2022/01/06 12:34:00;;;;;;;21.50;3.07;;;;;;;;;;5056582;28;20024;-90
2022/01/06 12:36:26;;;;;;;24.67;3.13;;;;;;;;;;5090424;28;20502;-90
2022/01/06 12:38:52;;;;;;;19.40;3.30;;;;;;;;;;5096497;28;20111;-88
2022/01/06 12:41:24;;;;;;;19.70;3.03;;;;;;;;;;5092456;28;20447;-88
2022/01/06 12:43:50;;;;;;;24.83;3.30;;;;;;;;;;5075939;28;20025;-88
2022/01/06 12:46:16;;;;;;;16.63;3.73;;;;;;;;;;5076001;28;20563;-88
2022/01/06 12:48:43;;;;;;;20.27;2.60;;;;;;;;;;5075465;28;20472;-88
2022/01/06 12:51:10;;;;;;;18.40;3.23;;;;;;;;;;5085373;28;20110;-88
2022/01/06 12:53:40;;;;;;;26.77;3.17;;;;;;;;;;5096160;28;20020;-90
2022/01/06 12:56:05;;;;;;;14.43;2.90;;;;;;;;;;5096430;28;20372;-90
2022/01/06 12:58:39;;;;;;;19.10;4.00;;;;;;;;;;5096527;28;20027;-91
2022/01/06 13:01:06;;;;;;;22.53;2.97;;;;;;;;;;5080873;28;20029;-90
2022/01/06 13:03:33;;;;;;;19.80;3.33;;;;;;;;;;5061905;28;20510;-90
2022/01/06 13:05:59;;;;;;;18.70;3.07;;;;;;;;;;5075418;28;20037;-90
2022/01/06 13:08:25;;;;;;;24.00;4.10;;;;;;;;;;5075376;28;20024;-90
2022/01/06 13:11:06;;;;;;;24.47;4.50;;;;;;;;;;5076928;28;20117;-89
2022/01/06 13:13:42;;;;;;;16.57;3.53;;;;;;;;;;5075446;28;20056;-88
2022/01/06 13:16:12;;;;;;;16.47;4.27;;;;;;;;;;5075213;28;20044;-89
2022/01/06 13:18:37;;;;;;;21.03;4.13;;;;;;;;;;5056597;28;20079;-89
2022/01/06 13:21:03;;;;;;;25.97;5.30;;;;;;;;;;5055525;28;20024;-89
2022/01/06 13:26:06;;;;;;;24.93;4.73;;;;;;;;;;5073226;28;20036;-89
2022/01/06 13:28:32;;;;;;;27.47;4.43;;;;;;;;;;5075419;28;20032;-88
2022/01/06 13:30:57;;;;;;;34.53;4.97;;;;;;;;;;5069850;28;20464;-90
2022/01/06 13:33:24;;;;;;;20.53;4.20;;;;;;;;;;5075315;28;20024;-89
2022/01/06 13:35:54;;;;;;;20.63;4.67;;;;;;;;;;5075283;28;20031;-89
2022/01/06 13:38:20;;;;;;;17.50;4.23;;;;;;;;;;5075205;28;20059;-89
2022/01/06 13:40:46;;;;;;;24.47;3.90;;;;;;;;;;5074187;28;20096;-89
2022/01/06 13:43:17;;;;;;;18.53;4.03;;;;;;;;;;5074682;28;20064;-89
2022/01/06 13:45:45;;;;;;;15.33;3.23;;;;;;;;;;5086010;28;20024;-90
2022/01/06 13:51:04;;;;;;;32.17;4.83;;;;;;;;;;5062682;28;20051;-91
2022/01/06 13:51:11;;;;;;;23.63;4.03;;;;;;;;;;5075997;28;20071;-90
2022/01/06 13:53:51;;;;;;;18.50;3.43;;;;;;;;;;5075132;28;20029;-91
2022/01/06 13:56:30;;;;;;;18.30;3.47;;;;;;;;;;5074764;28;20158;-91
2022/01/06 13:58:56;;;;;;;19.73;3.70;;;;;;;;;;5075052;28;20029;-90
2022/01/06 14:01:23;;;;;;;20.43;3.67;;;;;;;;;;5064039;28;20461;-90
2022/01/06 14:03:49;;;;;;;19.70;3.73;;;;;;;;;;5054945;28;20362;-90
2022/01/06 14:06:15;;;;;;;20.53;3.80;;;;;;;;;;5054983;28;20040;-90
2022/01/06 14:08:40;;;;;;;19.93;4.50;;;;;;;;;;5054977;28;20036;-91
2022/01/06 14:11:06;;;;;;;19.10;3.83;;;;;;;;;;5056060;28;20083;-91
2022/01/06 14:13:31;;;;;;;22.10;3.67;;;;;;;;;;5055804;28;20472;-91
2022/01/06 14:15:57;;;;;;;19.20;3.70;;;;;;;;;;5077449;28;20024;-91
2022/01/06 14:18:22;;;;;;;18.43;4.03;;;;;;;;;;5096112;28;20024;-91
2022/01/06 14:20:48;;;;;;;19.40;4.20;;;;;;;;;;5095732;28;20028;-91
2022/01/06 14:23:14;;;;;;;18.80;5.50;;;;;;;;;;5095769;28;20110;-91
2022/01/06 14:25:39;;;;;;;21.13;4.57;;;;;;;;;;5084563;28;20028;-90
2022/01/06 14:28:07;;;;;;;26.63;4.10;;;;;;;;;;5075534;28;20031;-90
2022/01/06 14:30:32;;;;;;;18.47;3.33;;;;;;;;;;5065323;28;20036;-90
2022/01/06 14:32:58;;;;;;;26.07;4.10;;;;;;;;;;5055098;28;20017;-91
2022/01/06 14:35:23;;;;;;;24.77;4.20;;;;;;;;;;5055382;28;20044;-91